createdAt,value
2022-08-24T00:00:50.500Z,78.49
2022-08-24T00:03:19.853Z,78.74
2022-08-24T00:05:49.050Z,77.94
2022-08-24T00:08:19.167Z,78.41
2022-08-24T00:10:48.963Z,77.85
2022-08-24T00:13:18.820Z,78.25
2022-08-24T00:15:49.315Z,77.89
2022-08-24T00:18:18.631Z,77.85
2022-08-24T00:20:48.536Z,77.83
2022-08-24T00:23:18.141Z,77.62
2022-08-24T00:25:47.761Z,77.11
2022-08-24T00:28:16.952Z,77.67
2022-08-24T00:30:45.953Z,78.36
2022-08-24T00:33:16.716Z,77.56
2022-08-24T00:35:45.876Z,77.81
2022-08-24T00:38:14.929Z,78.71
2022-08-24T00:40:49.787Z,78.50
2022-08-24T00:43:21.821Z,77.60
2022-08-24T00:45:59.441Z,79.04
2022-08-24T00:48:34.894Z,79.59
2022-08-24T00:51:08.744Z,80.26
2022-08-24T00:53:46.706Z,80.76
2022-08-24T00:56:21.780Z,80.57
2022-08-24T00:58:57.464Z,79.32
2022-08-24T01:01:29.706Z,79.45
2022-08-24T01:06:30.211Z,80.02
2022-08-24T01:08:59.534Z,79.88
2022-08-24T01:11:33.737Z,81.08
2022-08-24T01:14:05.397Z,80.15
2022-08-24T01:16:52.764Z,80.42
2022-08-24T01:19:34.739Z,80.30
2022-08-24T01:22:22.984Z,80.94
2022-08-24T01:24:53.766Z,81.55
2022-08-24T01:27:23.904Z,81.62
2022-08-24T01:30:00.001Z,81.56
2022-08-24T01:32:29.054Z,81.09
2022-08-24T01:34:59.443Z,81.11
2022-08-24T01:37:28.884Z,80.02
2022-08-24T01:40:01.592Z,79.86
2022-08-24T01:42:34.858Z,79.82
2022-08-24T01:45:05.759Z,80.09
2022-08-24T01:47:35.257Z,80.02
2022-08-24T01:50:05.712Z,79.15
2022-08-24T01:53:03.506Z,79.13
2022-08-24T01:57:56.062Z,78.64
2022-08-24T02:00:25.470Z,79.20
2022-08-24T02:02:56.660Z,80.76
2022-08-24T02:05:26.647Z,79.41
2022-08-24T02:07:56.837Z,79.74
2022-08-24T02:10:29.309Z,80.92
2022-08-24T02:13:00.477Z,80.14
2022-08-24T02:15:32.206Z,79.82
2022-08-24T02:18:02.055Z,80.27
2022-08-24T02:20:31.877Z,79.85
2022-08-24T02:23:01.351Z,80.45
2022-08-24T02:25:32.233Z,80.60
2022-08-24T02:28:02.304Z,80.06
2022-08-24T02:30:32.523Z,80.06
2022-08-24T02:33:02.546Z,79.82
2022-08-24T02:35:32.278Z,79.95
2022-08-24T02:38:01.780Z,79.10
2022-08-24T02:40:34.297Z,79.45
2022-08-24T02:43:03.748Z,78.74
2022-08-24T02:45:33.771Z,80.08
2022-08-24T02:48:02.848Z,80.73
2022-08-24T02:50:32.157Z,80.08
2022-08-24T02:53:01.889Z,79.55
2022-08-24T02:55:32.998Z,79.77
2022-08-24T02:58:02.275Z,79.69
2022-08-24T03:00:31.601Z,79.61
2022-08-24T03:03:01.758Z,79.21
2022-08-24T03:05:31.261Z,79.54
2022-08-24T03:08:00.321Z,79.34
2022-08-24T03:15:44.110Z,78.56
2022-08-24T03:18:14.058Z,78.50
2022-08-24T03:20:44.626Z,78.24
2022-08-24T03:23:14.262Z,78.00
2022-08-24T03:25:44.596Z,78.38
2022-08-24T03:28:14.277Z,78.87
2022-08-24T03:30:48.491Z,79.09
2022-08-24T03:33:19.766Z,79.02
2022-08-24T03:35:49.160Z,79.13
2022-08-24T03:38:19.715Z,78.42
2022-08-24T03:40:49.145Z,78.64
2022-08-24T03:43:33.480Z,78.18
2022-08-24T03:46:07.548Z,78.05
2022-08-24T03:48:41.077Z,78.16
2022-08-24T03:51:14.721Z,78.32
2022-08-24T03:53:44.636Z,78.67
2022-08-24T03:56:13.971Z,78.56
2022-08-24T03:58:43.514Z,78.50
2022-08-24T04:01:15.661Z,79.46
2022-08-24T04:03:46.949Z,78.99
2022-08-24T04:06:19.342Z,79.00
2022-08-24T04:08:49.461Z,79.88
2022-08-24T04:11:23.094Z,79.27
2022-08-24T04:13:54.322Z,79.74
2022-08-24T04:16:27.084Z,79.89
2022-08-24T04:19:06.162Z,79.67
2022-08-24T04:21:37.234Z,80.53
2022-08-24T04:24:10.519Z,80.58
2022-08-24T04:26:45.772Z,80.55
2022-08-24T04:29:20.609Z,80.33
2022-08-24T04:31:56.452Z,79.82
2022-08-24T04:34:25.981Z,79.82
2022-08-24T04:36:55.425Z,79.82
2022-08-24T04:39:24.411Z,79.73
2022-08-24T04:41:58.954Z,79.27
2022-08-24T04:44:36.150Z,79.67
2022-08-24T04:47:08.859Z,79.70
2022-08-24T04:49:40.053Z,78.97
2022-08-24T04:52:09.989Z,79.00
2022-08-24T04:54:39.118Z,79.10
2022-08-24T04:57:17.995Z,79.46
2022-08-24T04:59:48.669Z,79.10
2022-08-24T05:02:20.978Z,78.93
2022-08-24T05:04:52.275Z,78.71
2022-08-24T05:07:21.706Z,78.24
2022-08-24T05:09:52.434Z,78.25
2022-08-24T05:12:22.956Z,78.23
2022-08-24T05:15:00.670Z,77.88
2022-08-24T05:17:33.545Z,77.68
2022-08-24T05:20:06.770Z,77.36
2022-08-24T05:22:36.325Z,77.22
2022-08-24T05:25:07.432Z,77.03
2022-08-24T05:27:37.738Z,78.29
2022-08-24T05:30:08.301Z,77.71
2022-08-24T05:32:39.508Z,77.13
2022-08-24T05:35:09.837Z,76.85
2022-08-24T05:37:40.336Z,76.98
2022-08-24T05:40:21.022Z,77.18
2022-08-24T05:42:54.816Z,76.77
2022-08-24T05:45:24.971Z,76.13
2022-08-24T05:47:55.695Z,75.21
2022-08-24T05:50:55.151Z,74.99
2022-08-24T05:53:25.837Z,75.23
2022-08-24T05:55:55.332Z,75.37
2022-08-24T05:58:30.777Z,75.43
2022-08-24T06:01:08.645Z,73.71
2022-08-24T06:03:40.847Z,73.72
2022-08-24T06:06:13.650Z,74.17
2022-08-24T06:08:45.838Z,74.46
2022-08-24T06:11:30.183Z,73.98
2022-08-24T06:14:01.893Z,74.80
2022-08-24T06:16:36.649Z,74.18
2022-08-24T06:19:09.595Z,73.61
2022-08-24T06:21:39.091Z,73.97
2022-08-24T06:24:09.183Z,74.31
2022-08-24T06:26:56.458Z,74.43
2022-08-24T06:29:25.644Z,74.13
2022-08-24T06:31:59.985Z,75.11
2022-08-24T06:34:30.736Z,74.12
2022-08-24T06:36:59.924Z,74.22
2022-08-24T06:39:29.287Z,75.35
2022-08-24T06:41:59.496Z,74.18
2022-08-24T06:44:33.516Z,73.73
2022-08-24T06:47:15.831Z,73.16
2022-08-24T06:49:46.866Z,73.89
2022-08-24T06:52:16.718Z,73.93
2022-08-24T06:54:46.183Z,73.62
2022-08-24T06:57:15.539Z,74.13
2022-08-24T06:59:45.897Z,73.58
2022-08-24T07:02:16.531Z,74.61
2022-08-24T07:04:48.318Z,74.69
2022-08-24T07:07:36.596Z,74.63
2022-08-24T07:10:08.708Z,74.01
2022-08-24T07:12:40.220Z,74.53
2022-08-24T07:15:12.537Z,73.75
2022-08-24T07:17:52.045Z,74.93
2022-08-24T07:20:25.052Z,75.20
2022-08-24T07:23:13.110Z,75.21
2022-08-24T07:25:48.913Z,74.14
2022-08-24T07:28:31.631Z,74.50
2022-08-24T07:31:03.722Z,74.12
2022-08-24T07:33:39.048Z,71.22
2022-08-24T07:36:10.167Z,69.79
2022-08-24T07:38:42.258Z,67.68
2022-08-24T07:41:38.193Z,66.60
2022-08-24T07:44:01.351Z,65.71
2022-08-24T07:46:30.882Z,67.79
2022-08-24T07:49:11.405Z,67.61
2022-08-24T07:51:53.323Z,66.24
2022-08-24T07:54:23.028Z,67.04
2022-08-24T07:56:53.508Z,64.24
2022-08-24T07:59:22.946Z,64.35
2022-08-24T08:01:53.278Z,65.80
2022-08-24T08:04:25.287Z,65.24
2022-08-24T08:09:33.136Z,66.55
2022-08-24T08:12:03.061Z,66.18
2022-08-24T08:14:33.209Z,63.43
2022-08-24T08:17:02.982Z,62.84
2022-08-24T08:19:33.166Z,63.64
2022-08-24T08:22:21.927Z,59.84
2022-08-24T08:25:19.286Z,61.35
2022-08-24T08:27:48.793Z,60.28
2022-08-24T08:30:18.683Z,57.72
2022-08-24T08:32:47.770Z,58.92
2022-08-24T08:35:17.150Z,58.50
2022-08-24T08:37:48.295Z,60.00
2022-08-24T08:40:31.060Z,57.45
2022-08-24T08:43:07.576Z,59.76
2022-08-24T08:45:58.766Z,58.70
2022-08-24T08:49:24.751Z,58.39
2022-08-24T08:52:24.634Z,58.13
2022-08-24T08:55:11.938Z,56.68
2022-08-24T08:57:56.641Z,57.69
2022-08-24T09:00:34.882Z,59.88
2022-08-24T09:03:25.587Z,59.50
2022-08-24T09:06:38.665Z,60.43
2022-08-24T09:09:36.074Z,55.07
2022-08-24T09:12:23.292Z,54.17
2022-08-24T09:15:15.958Z,56.84
2022-08-24T09:18:04.881Z,53.41
2022-08-24T09:21:04.699Z,56.22
2022-08-24T09:23:45.682Z,55.86
2022-08-24T09:26:27.267Z,57.31
2022-08-24T09:29:11.385Z,56.04
2022-08-24T09:31:57.402Z,51.45
2022-08-24T09:34:37.365Z,51.64
2022-08-24T09:37:30.202Z,56.50
2022-08-24T09:40:12.823Z,55.29
2022-08-24T09:43:17.506Z,52.50
2022-08-24T09:46:25.369Z,52.21
2022-08-24T09:49:23.996Z,51.07
2022-08-24T09:52:36.786Z,49.58
2022-08-24T09:55:33.472Z,46.03
2022-08-24T09:58:14.355Z,49.64
2022-08-24T10:00:48.956Z,48.54
2022-08-24T10:03:48.570Z,47.34
2022-08-24T10:06:31.471Z,51.35
2022-08-24T10:09:15.540Z,49.41
2022-08-24T10:12:00.292Z,46.80
2022-08-24T10:14:45.881Z,47.41
2022-08-24T10:17:23.314Z,45.95
2022-08-24T10:20:06.902Z,46.72
2022-08-24T10:23:02.606Z,47.10
2022-08-24T10:25:39.494Z,45.06
2022-08-24T10:28:45.874Z,42.36
2022-08-24T10:31:20.424Z,40.05
2022-08-24T10:34:08.241Z,40.14
2022-08-24T10:37:02.460Z,41.78
2022-08-24T10:39:43.646Z,42.92
2022-08-24T10:42:58.770Z,44.65
2022-08-24T10:46:02.501Z,40.71
2022-08-24T10:48:54.614Z,43.48
2022-08-24T10:51:37.915Z,44.77
2022-08-24T10:54:12.329Z,47.38
2022-08-24T10:56:44.574Z,46.52
2022-08-24T10:59:23.950Z,41.80
2022-08-24T11:02:08.420Z,37.73
2022-08-24T11:04:43.535Z,35.39
2022-08-24T11:07:20.535Z,33.68
2022-08-24T11:09:56.398Z,31.61
2022-08-24T11:12:33.676Z,32.19
2022-08-24T11:15:06.049Z,36.26
2022-08-24T11:17:37.836Z,40.04
2022-08-24T11:20:27.800Z,43.11
2022-08-24T11:23:05.250Z,43.46
2022-08-24T11:25:38.703Z,46.05
2022-08-24T11:28:20.698Z,48.11
2022-08-24T11:30:50.323Z,50.29
2022-08-24T11:33:32.195Z,53.25
2022-08-24T11:36:02.833Z,53.36
2022-08-24T11:38:35.084Z,55.08
2022-08-24T11:41:14.455Z,56.35
2022-08-24T11:43:59.547Z,57.47
2022-08-24T11:46:38.388Z,54.88
2022-08-24T11:49:15.526Z,53.78
2022-08-24T11:51:50.298Z,52.43
2022-08-24T11:54:30.066Z,47.54
2022-08-24T11:57:12.776Z,47.93
2022-08-24T11:59:51.861Z,40.03
2022-08-24T12:02:29.963Z,38.62
2022-08-24T12:05:09.899Z,39.38
2022-08-24T12:07:52.380Z,40.14
2022-08-24T12:10:32.819Z,33.49
2022-08-24T12:13:10.386Z,31.09
2022-08-24T12:15:51.808Z,31.01
2022-08-24T12:18:31.080Z,34.35
2022-08-24T12:21:01.398Z,31.68
2022-08-24T12:23:38.704Z,29.84
2022-08-24T12:26:13.388Z,28.81
2022-08-24T12:28:53.657Z,28.98
2022-08-24T12:31:37.751Z,31.35
2022-08-24T12:34:14.612Z,28.99
2022-08-24T12:36:54.833Z,29.05
2022-08-24T12:39:27.559Z,25.29
2022-08-24T12:42:17.214Z,27.03
2022-08-24T12:44:56.766Z,24.89
2022-08-24T12:47:31.463Z,26.00
2022-08-24T12:50:07.198Z,24.80
2022-08-24T12:53:08.981Z,24.38
2022-08-24T12:56:08.306Z,23.81
2022-08-24T12:58:58.440Z,25.95
2022-08-24T13:01:33.723Z,26.03
2022-08-24T13:04:20.111Z,27.05
2022-08-24T13:06:57.744Z,26.71
2022-08-24T13:09:33.227Z,26.00
2022-08-24T13:12:41.771Z,25.44
2022-08-24T13:15:42.756Z,25.45
2022-08-24T13:18:42.867Z,24.72
2022-08-24T13:21:33.931Z,25.93
2022-08-24T13:24:48.237Z,29.63
2022-08-24T13:28:03.048Z,30.14
2022-08-24T13:31:04.478Z,28.03
2022-08-24T13:33:38.867Z,28.89
2022-08-24T13:36:47.282Z,29.22
2022-08-24T13:39:49.088Z,28.75
2022-08-24T13:42:39.995Z,29.36
2022-08-24T13:45:26.203Z,32.89
2022-08-24T13:48:05.193Z,30.65
2022-08-24T13:50:43.716Z,31.51
2022-08-24T13:53:44.514Z,34.78
2022-08-24T13:56:32.686Z,34.58
2022-08-24T13:59:12.436Z,34.81
2022-08-24T14:02:01.096Z,39.42
2022-08-24T14:04:55.127Z,39.18
2022-08-24T14:07:29.915Z,39.97
2022-08-24T14:10:11.939Z,40.02
2022-08-24T14:12:52.081Z,34.90
2022-08-24T14:15:35.063Z,34.88
2022-08-24T14:18:11.644Z,33.72
2022-08-24T14:21:05.963Z,34.52
2022-08-24T14:23:57.640Z,34.73
2022-08-24T14:27:07.233Z,35.28
2022-08-24T14:29:44.321Z,33.81
2022-08-24T14:32:40.797Z,30.65
2022-08-24T14:35:36.337Z,30.09
2022-08-24T14:38:33.322Z,30.83
2022-08-24T14:41:21.075Z,34.94
2022-08-24T14:44:15.105Z,34.83
2022-08-24T14:46:53.022Z,35.00
2022-08-24T14:49:30.482Z,35.85
2022-08-24T14:52:24.888Z,36.86
2022-08-24T14:55:07.103Z,40.24
2022-08-24T14:57:44.093Z,44.72
2022-08-24T15:00:16.105Z,46.85
2022-08-24T15:03:06.596Z,51.12
2022-08-24T15:05:44.003Z,53.56
2022-08-24T15:08:28.914Z,53.36
2022-08-24T15:11:02.664Z,53.43
2022-08-24T15:13:38.610Z,53.44
2022-08-24T15:16:13.148Z,54.03
2022-08-24T15:18:49.352Z,56.38
2022-08-24T15:21:41.451Z,55.91
2022-08-24T15:24:20.732Z,56.92
2022-08-24T15:27:15.611Z,58.04
2022-08-24T15:29:53.223Z,57.56
2022-08-24T15:32:28.243Z,60.76
2022-08-24T15:34:59.513Z,61.87
2022-08-24T15:37:35.113Z,59.34
2022-08-24T15:40:10.946Z,60.25
2022-08-24T15:42:42.991Z,60.72
2022-08-24T15:45:14.798Z,61.31
2022-08-24T15:47:51.889Z,62.85
2022-08-24T15:50:26.405Z,63.51
2022-08-24T15:53:01.109Z,63.21
2022-08-24T15:55:42.238Z,61.89
2022-08-24T15:58:30.519Z,63.67
2022-08-24T16:01:36.263Z,63.33
2022-08-24T16:04:11.775Z,62.92
2022-08-24T16:06:45.342Z,63.36
2022-08-24T16:09:35.643Z,62.89
2022-08-24T16:12:12.829Z,62.21
2022-08-24T16:14:47.566Z,62.79
2022-08-24T16:17:28.180Z,62.88
2022-08-24T16:20:00.678Z,63.13
2022-08-24T16:22:36.178Z,64.02
2022-08-24T16:25:25.521Z,63.19
2022-08-24T16:28:07.823Z,62.78
2022-08-24T16:30:48.349Z,62.21
2022-08-24T16:33:44.193Z,61.59
2022-08-24T16:36:17.821Z,62.37
2022-08-24T16:38:50.842Z,61.55
2022-08-24T16:41:23.797Z,60.42
2022-08-24T16:43:53.645Z,61.46
2022-08-24T16:46:24.944Z,62.38
2022-08-24T16:48:55.182Z,61.66
2022-08-24T16:51:25.486Z,62.00
2022-08-24T16:53:55.127Z,62.40
2022-08-24T16:56:26.224Z,62.46
2022-08-24T16:58:56.076Z,63.15
2022-08-24T17:01:25.995Z,64.00
2022-08-24T17:03:55.612Z,64.34
2022-08-24T17:06:25.227Z,64.04
2022-08-24T17:08:55.099Z,63.96
2022-08-24T17:11:27.199Z,65.15
2022-08-24T17:13:56.922Z,64.81
2022-08-24T17:16:26.403Z,65.74
2022-08-24T17:18:55.915Z,65.27
2022-08-24T17:21:25.239Z,65.31
2022-08-24T17:23:54.429Z,66.46
2022-08-24T17:26:26.960Z,67.25
2022-08-24T17:28:56.972Z,67.87
2022-08-24T17:31:26.376Z,67.66
2022-08-24T17:33:55.860Z,69.68
2022-08-24T17:36:26.157Z,70.44
2022-08-24T17:39:03.165Z,70.97
2022-08-24T17:41:34.622Z,70.32
2022-08-24T17:44:04.678Z,70.10
2022-08-24T17:46:37.253Z,71.08
2022-08-24T17:49:07.738Z,71.20
2022-08-24T17:51:37.330Z,70.95
2022-08-24T17:54:08.156Z,71.21
2022-08-24T17:56:41.009Z,71.84
2022-08-24T17:59:26.454Z,72.33
2022-08-24T18:02:00.500Z,72.53
2022-08-24T18:04:34.051Z,74.59
2022-08-24T18:07:05.992Z,73.88
2022-08-24T18:09:42.109Z,74.03
2022-08-24T18:12:13.065Z,72.92
2022-08-24T18:14:43.372Z,73.28
2022-08-24T18:17:21.110Z,72.64
2022-08-24T18:19:54.175Z,73.86
2022-08-24T18:22:23.468Z,74.83
2022-08-24T18:24:52.809Z,74.34
2022-08-24T18:27:28.898Z,74.31
2022-08-24T18:30:01.325Z,74.18
2022-08-24T18:32:37.730Z,74.44
2022-08-24T18:35:09.871Z,75.37
2022-08-24T18:37:39.165Z,75.17
2022-08-24T18:40:21.390Z,74.98
2022-08-24T18:42:52.514Z,76.00
2022-08-24T18:45:22.987Z,75.44
2022-08-24T18:47:53.302Z,75.01
2022-08-24T18:50:23.567Z,74.43
2022-08-24T18:52:52.859Z,74.98
2022-08-24T18:55:23.110Z,75.74
2022-08-24T18:57:54.336Z,74.74
2022-08-24T19:00:24.080Z,74.96
2022-08-24T19:02:57.959Z,75.60
2022-08-24T19:05:27.983Z,76.50
2022-08-24T19:07:57.424Z,76.51
2022-08-24T19:10:28.821Z,76.15
2022-08-24T19:13:03.283Z,76.44
2022-08-24T19:15:40.342Z,75.73
2022-08-24T19:18:12.677Z,75.97
2022-08-24T19:20:47.953Z,77.14
2022-08-24T19:23:22.430Z,76.27
2022-08-24T19:25:55.879Z,76.73
2022-08-24T19:28:27.584Z,76.08
2022-08-24T19:31:00.511Z,76.61
2022-08-24T19:33:37.148Z,76.42
2022-08-24T19:36:07.240Z,76.68
2022-08-24T19:38:37.010Z,77.02
2022-08-24T19:41:12.676Z,77.04
2022-08-24T19:43:58.512Z,76.95
2022-08-24T19:46:28.159Z,75.92
2022-08-24T19:48:57.583Z,76.11
2022-08-24T19:51:27.081Z,76.38
2022-08-24T19:53:58.697Z,77.02
2022-08-24T19:56:32.549Z,77.07
2022-08-24T19:59:07.782Z,76.11
2022-08-24T20:01:38.383Z,76.50
2022-08-24T20:04:08.492Z,76.72
2022-08-24T20:06:38.738Z,76.67
2022-08-24T20:09:08.420Z,76.71
2022-08-24T20:11:39.435Z,76.49
2022-08-24T20:14:10.287Z,76.13
2022-08-24T20:16:43.578Z,76.76
2022-08-24T20:19:15.793Z,77.16
2022-08-24T20:21:45.145Z,77.51
2022-08-24T20:24:15.316Z,77.79
2022-08-24T20:26:46.841Z,77.60
2022-08-24T20:29:18.238Z,77.77
2022-08-24T20:31:50.617Z,77.90
2022-08-24T20:34:21.505Z,77.42
2022-08-24T20:36:52.017Z,77.18
2022-08-24T20:39:24.970Z,77.83
2022-08-24T20:41:54.487Z,77.96
2022-08-24T20:44:25.067Z,78.11
2022-08-24T20:46:55.269Z,77.81
2022-08-24T20:49:27.868Z,77.76
2022-08-24T20:52:00.622Z,77.48
2022-08-24T20:54:29.908Z,77.57
2022-08-24T20:56:59.113Z,77.76
2022-08-24T20:59:29.852Z,76.96
2022-08-24T21:02:00.259Z,78.30
2022-08-24T21:04:30.602Z,77.40
2022-08-24T21:06:59.854Z,77.49
2022-08-24T21:09:29.413Z,78.42
2022-08-24T21:11:58.578Z,79.15
2022-08-24T21:14:29.287Z,78.26
2022-08-24T21:17:01.013Z,78.63
2022-08-24T21:19:30.730Z,78.66
2022-08-24T21:22:00.030Z,78.08
2022-08-24T21:24:29.441Z,77.65
2022-08-24T21:26:59.939Z,78.81
2022-08-24T21:29:33.120Z,78.33
2022-08-24T21:32:19.583Z,78.08
2022-08-24T21:34:48.976Z,78.49
2022-08-24T21:37:20.275Z,78.33
2022-08-24T21:39:50.094Z,77.88
2022-08-24T21:42:20.209Z,78.24
2022-08-24T21:44:50.678Z,77.95
2022-08-24T21:47:20.279Z,77.93
2022-08-24T21:49:49.480Z,78.15
2022-08-24T21:52:18.584Z,77.96
2022-08-24T21:54:47.968Z,78.03
2022-08-24T21:57:16.952Z,78.13
2022-08-24T21:59:46.273Z,77.75
2022-08-24T22:02:20.568Z,77.87
2022-08-24T22:04:56.044Z,77.81
2022-08-24T22:07:26.141Z,78.68
2022-08-24T22:09:55.267Z,77.68
2022-08-24T22:12:24.283Z,78.12
2022-08-24T22:14:53.493Z,78.01
2022-08-24T22:17:23.954Z,77.98
2022-08-24T22:19:52.922Z,77.68
2022-08-24T22:22:22.461Z,78.09
2022-08-24T22:24:51.641Z,78.36
2022-08-24T22:27:21.146Z,77.89
2022-08-24T22:29:54.574Z,77.93
2022-08-24T22:32:25.767Z,78.52
2022-08-24T22:34:55.489Z,78.56
2022-08-24T22:37:24.556Z,78.46
2022-08-24T22:39:53.551Z,78.88
2022-08-24T22:42:22.909Z,79.07
2022-08-24T22:44:52.134Z,78.59
2022-08-24T22:47:21.241Z,78.23
2022-08-24T22:49:54.345Z,77.92
2022-08-24T22:52:23.644Z,77.81
2022-08-24T22:54:52.881Z,78.01
2022-08-24T22:57:21.885Z,77.67
2022-08-24T22:59:51.142Z,78.63
2022-08-24T23:02:20.708Z,78.31
2022-08-24T23:04:52.537Z,78.42
2022-08-24T23:07:22.162Z,78.57
2022-08-24T23:09:51.517Z,78.79
2022-08-24T23:12:22.961Z,79.78
2022-08-24T23:14:53.552Z,79.35
2022-08-24T23:17:23.637Z,79.26
2022-08-24T23:20:05.810Z,78.79
2022-08-24T23:22:38.705Z,78.33
2022-08-24T23:25:09.756Z,78.23
2022-08-24T23:27:39.263Z,77.46
2022-08-24T23:30:11.518Z,77.87
2022-08-24T23:32:41.269Z,78.38
2022-08-24T23:35:12.222Z,77.74
2022-08-24T23:37:42.282Z,78.08
2022-08-24T23:40:12.606Z,78.50
2022-08-24T23:42:41.808Z,78.66
2022-08-24T23:45:12.407Z,77.51
2022-08-24T23:47:42.683Z,78.18
2022-08-24T23:50:13.550Z,77.68
2022-08-24T23:52:42.894Z,78.38
2022-08-24T23:55:21.323Z,77.86
2022-08-24T23:57:52.712Z,78.04
